Time;durP1;ratioP1;P1;durP2;ratioP2;P2;SDS_P1;SDS_P2;PMS_P1;PMS_P2;Temp;Humidity;BMP_temperature;BMP_pressure;BME280_temperature;BME280_humidity;BME280_pressure;Samples;Min_cycle;Max_cycle;Signal;HPM_P1;HPM_P2
2021/10/23 00:00:48;;;;;;;3.05;0.98;;;;;;;5.26;76.60;100624.06;1689175;83;20950;-67
2021/10/23 00:03:14;;;;;;;2.17;0.60;;;;;;;5.25;76.62;100629.18;1689144;83;25051;-67
2021/10/23 00:05:40;;;;;;;3.00;0.97;;;;;;;5.22;76.72;100630.02;1683636;83;20906;-67
2021/10/23 00:08:06;;;;;;;2.27;0.78;;;;;;;5.20;76.68;100632.17;1681663;83;21040;-67
2021/10/23 00:10:32;;;;;;;5.15;0.70;;;;;;;5.17;76.66;100633.01;1675013;83;21048;-67
2021/10/23 00:12:58;;;;;;;6.53;1.27;;;;;;;5.17;76.71;100641.98;1687624;83;21700;-67
2021/10/23 00:15:25;;;;;;;3.63;0.97;;;;;;;5.08;76.79;100620.55;1677121;83;21673;-67
2021/10/23 00:17:54;;;;;;;3.22;0.90;;;;;;;5.14;76.64;100635.55;1687647;83;21120;-67
2021/10/23 00:20:20;;;;;;;3.60;1.13;;;;;;;5.12;76.73;100635.97;1686308;83;21791;-67
2021/10/23 00:22:46;;;;;;;1.22;0.93;;;;;;;5.10;76.75;100643.20;1687778;83;20969;-67
2021/10/23 00:25:12;;;;;;;3.45;0.78;;;;;;;5.09;76.70;100648.76;1689139;83;20898;-68
2021/10/23 00:27:39;;;;;;;3.67;0.78;;;;;;;5.08;76.79;100647.47;1688390;83;21036;-67
2021/10/23 00:30:07;;;;;;;2.95;0.90;;;;;;;5.06;76.76;100650.02;1685829;83;21048;-67
2021/10/23 00:32:37;;;;;;;4.78;0.80;;;;;;;5.05;76.75;100654.71;1688668;83;20984;-67
2021/10/23 00:35:05;;;;;;;4.72;0.90;;;;;;;5.04;76.76;100654.70;1687540;83;21136;-67
2021/10/23 00:37:31;;;;;;;3.33;0.95;;;;;;;5.03;76.76;100644.87;1678068;83;21049;-67
2021/10/23 00:39:57;;;;;;;3.87;1.00;;;;;;;5.03;76.80;100639.75;1687582;83;20937;-67
2021/10/23 00:42:24;;;;;;;2.40;0.68;;;;;;;5.01;76.83;100641.86;1685434;83;20929;-67
2021/10/23 00:44:50;;;;;;;5.15;1.27;;;;;;;4.99;76.85;100640.15;1683381;83;21044;-67
2021/10/23 00:47:20;;;;;;;7.90;0.85;;;;;;;4.99;76.84;100645.70;1678928;83;21170;-67
2021/10/23 00:49:51;;;;;;;2.98;1.02;;;;;;;4.98;76.91;100650.38;1685205;83;21115;-67
2021/10/23 00:52:19;;;;;;;4.95;1.15;;;;;;;4.97;76.86;100647.39;1681945;83;20985;-68
2021/10/23 00:54:49;;;;;;;5.33;1.35;;;;;;;4.94;76.90;100641.81;1689223;83;20901;-67
2021/10/23 00:57:15;;;;;;;4.33;0.85;;;;;;;;;;1689257;83;20886;-67
2021/10/23 00:59:43;;;;;;;3.47;0.90;;;;;;;4.95;76.94;100665.31;1686931;83;20874;-67
2021/10/23 01:02:12;;;;;;;3.77;0.98;;;;;;;4.94;76.93;100662.31;1688568;83;20901;-67
2021/10/23 01:04:39;;;;;;;4.80;1.23;;;;;;;4.93;76.98;100659.74;1687951;81;20874;-67
2021/10/23 01:07:05;;;;;;;5.12;0.90;;;;;;;4.92;76.97;100663.15;1679487;83;20999;-67
2021/10/23 01:09:41;;;;;;;4.33;0.85;;;;;;;4.92;76.99;100664.43;1689062;83;20898;-67
2021/10/23 01:12:09;;;;;;;5.47;1.12;;;;;;;4.91;76.98;100667.41;1680342;83;20913;-67
2021/10/23 01:14:35;;;;;;;2.58;0.80;;;;;;;4.91;77.02;100668.70;1687580;83;21495;-67
2021/10/23 01:17:02;;;;;;;2.58;0.88;;;;;;;4.92;77.06;100672.12;1685951;83;21585;-67
2021/10/23 01:19:28;;;;;;;5.67;0.98;;;;;;;4.93;77.08;100675.11;1674895;83;20940;-67
2021/10/23 01:21:54;;;;;;;6.03;1.52;;;;;;;4.94;77.00;100665.30;1689282;83;20957;-67
2021/10/23 01:24:22;;;;;;;5.30;1.25;;;;;;;4.92;77.09;100679.80;1689232;83;20961;-67
2021/10/23 01:26:48;;;;;;;4.10;1.00;;;;;;;4.93;77.07;100672.55;1685830;83;20937;-67
2021/10/23 01:29:19;;;;;;;5.78;1.07;;;;;;;4.92;77.08;100685.78;1679408;83;20933;-67
2021/10/23 01:31:49;;;;;;;7.17;1.55;;;;;;;4.93;77.09;100684.08;1689034;83;20941;-67
2021/10/23 01:34:20;;;;;;;5.78;1.35;;;;;;;4.93;77.15;100691.77;1683317;83;21404;-67
2021/10/23 01:36:59;;;;;;;6.55;0.98;;;;;;;4.94;77.18;100685.80;1683345;83;20937;-67
2021/10/23 01:39:27;;;;;;;7.45;1.07;;;;;;;4.96;77.22;100687.95;1686055;83;20965;-67
2021/10/23 01:41:55;;;;;;;5.50;1.25;;;;;;;5.02;77.23;100693.55;1680974;83;20965;-67
2021/10/23 01:44:34;;;;;;;6.37;1.45;;;;;;;5.06;77.26;100691.45;1688191;83;20965;-67
2021/10/23 01:47:01;;;;;;;5.22;1.00;;;;;;;5.10;77.23;100697.03;1683227;83;20977;-67
2021/10/23 01:49:27;;;;;;;1.75;0.95;;;;;;;5.14;77.29;100689.80;1669429;83;21060;-67
2021/10/23 01:51:54;;;;;;;7.00;1.12;;;;;;;5.17;77.27;100693.24;1689012;83;20890;-67
2021/10/23 01:54:20;;;;;;;7.83;1.02;;;;;;;5.19;77.32;100682.58;1682592;83;20933;-67
2021/10/23 01:56:46;;;;;;;8.47;1.07;;;;;;;5.23;77.34;100689.41;1688496;83;20968;-67
2021/10/23 01:59:12;;;;;;;8.13;1.20;;;;;;;5.27;77.30;100698.84;1689299;83;21551;-67
2021/10/23 02:01:38;;;;;;;3.87;1.53;;;;;;;5.30;77.33;100695.02;1689037;83;20956;-67
2021/10/23 02:04:05;;;;;;;7.83;1.70;;;;;;;5.33;77.29;100698.88;1683385;83;21614;-67
2021/10/23 02:06:32;;;;;;;5.35;1.82;;;;;;;5.36;77.54;100695.91;1685462;83;21107;-67
2021/10/23 02:08:58;;;;;;;7.50;1.15;;;;;;;5.37;77.26;100699.76;1685082;83;21064;-67
2021/10/23 02:11:24;;;;;;;6.60;1.20;;;;;;;5.38;77.27;100703.18;1677610;83;21143;-67
2021/10/23 02:14:00;;;;;;;6.87;1.40;;;;;;;5.38;77.29;100701.48;1686943;83;21529;-67
2021/10/23 02:16:25;;;;;;;3.95;0.93;;;;;;;5.37;77.27;100712.58;1682053;83;21163;-67
2021/10/23 02:18:51;;;;;;;5.13;1.00;;;;;;;5.38;77.27;100713.44;1676937;83;21088;-67
2021/10/23 02:21:18;;;;;;;9.83;0.90;;;;;;;5.35;77.29;100712.99;1687855;83;21972;-67
2021/10/23 02:23:44;;;;;;;7.15;1.15;;;;;;;5.35;77.31;100716.84;1684075;83;20996;-67
2021/10/23 02:26:20;;;;;;;6.30;1.22;;;;;;;5.36;77.33;100717.70;1680321;83;21858;-68
2021/10/23 02:28:46;;;;;;;7.33;1.25;;;;;;;5.34;77.36;100730.51;1687597;83;21080;-67
2021/10/23 02:31:12;;;;;;;5.92;1.15;;;;;;;5.35;77.42;100731.36;1686633;83;21064;-68
2021/10/23 02:33:41;;;;;;;7.75;1.55;;;;;;;5.36;77.39;100728.81;1686707;83;21516;-67
2021/10/23 02:36:07;;;;;;;7.00;1.15;;;;;;;5.38;77.41;100733.95;1682308;83;21139;-67
2021/10/23 02:38:34;;;;;;;7.78;1.20;;;;;;;5.38;77.41;100727.12;1689379;83;20974;-67
2021/10/23 02:40:59;;;;;;;4.70;0.87;;;;;;;5.39;77.41;100733.96;1670528;83;20941;-67
2021/10/23 02:43:26;;;;;;;5.97;1.20;;;;;;;5.42;77.41;100733.13;1682424;83;20885;-67
2021/10/23 02:45:53;;;;;;;9.15;1.22;;;;;;;5.42;77.54;100725.01;1689430;83;20926;-67
2021/10/23 02:48:20;;;;;;;7.47;1.52;;;;;;;5.42;77.46;100735.69;1680973;83;20969;-67
2021/10/23 02:50:46;;;;;;;4.62;1.02;;;;;;;5.41;77.43;100741.66;1674521;83;20929;-67
2021/10/23 02:53:12;;;;;;;8.30;1.07;;;;;;;5.42;77.45;100744.66;1686105;83;20929;-67
2021/10/23 02:55:38;;;;;;;3.53;1.23;;;;;;;5.41;77.47;100750.64;1689376;83;20933;-67
2021/10/23 02:58:05;;;;;;;7.17;1.20;;;;;;;5.40;77.49;100752.34;1686197;83;20901;-67
2021/10/23 03:00:31;;;;;;;4.72;1.32;;;;;;;5.39;77.52;100751.91;1685511;83;21271;-67
2021/10/23 03:02:57;;;;;;;9.67;1.10;;;;;;;5.39;77.50;100755.75;1687394;83;21526;-67
2021/10/23 03:05:23;;;;;;;6.97;1.67;;;;;;;5.37;77.54;100749.76;1705506;83;21198;-67
2021/10/23 03:07:49;;;;;;;9.03;1.37;;;;;;;5.43;77.56;100756.22;1698556;83;20864;-68
2021/10/23 03:10:15;;;;;;;8.90;1.52;;;;;;;5.46;77.56;100761.78;1677037;83;21480;-68
2021/10/23 03:12:41;;;;;;;5.58;0.98;;;;;;;5.49;77.61;100768.22;1691362;83;20935;-68
2021/10/23 03:15:08;;;;;;;5.03;1.10;;;;;;;5.50;77.58;100766.09;1706966;83;20877;-68
2021/10/23 03:17:34;;;;;;;5.03;1.20;;;;;;;5.53;77.55;100751.58;1704022;83;21435;-68
2021/10/23 03:20:02;;;;;;;7.37;1.30;;;;;;;5.55;77.52;100760.15;1698992;83;20916;-68
2021/10/23 03:22:31;;;;;;;8.45;1.30;;;;;;;5.56;77.53;100768.28;1706901;83;20892;-67
2021/10/23 03:24:57;;;;;;;5.92;1.22;;;;;;;5.57;77.56;100753.75;1700921;83;20969;-68
2021/10/23 03:27:23;;;;;;;4.60;1.23;;;;;;;5.57;77.57;100770.00;1694980;83;20845;-68
2021/10/23 03:29:50;;;;;;;5.97;1.50;;;;;;;5.59;77.57;100780.27;1696316;83;21082;-67
2021/10/23 03:32:17;;;;;;;8.50;0.95;;;;;;;5.62;77.58;100787.98;1703142;83;20984;-68
2021/10/23 03:34:44;;;;;;;6.55;1.45;;;;;;;5.64;77.62;100778.17;1704946;83;20916;-68
2021/10/23 03:37:10;;;;;;;9.38;1.35;;;;;;;5.67;77.63;100788.88;1707091;83;21003;-68
2021/10/23 03:39:38;;;;;;;8.03;1.32;;;;;;;5.72;77.64;100798.70;1688633;83;21462;-68
2021/10/23 03:42:04;;;;;;;15.10;1.98;;;;;;;5.75;77.64;100782.05;1702906;83;20944;-68
2021/10/23 03:44:33;;;;;;;8.80;1.37;;;;;;;5.79;77.62;100785.08;1695406;83;20995;-68
2021/10/23 03:46:59;;;;;;;6.08;1.45;;;;;;;5.82;77.63;100783.81;1703083;83;21015;-68
2021/10/23 03:49:25;;;;;;;8.10;1.20;;;;;;;5.84;77.61;100785.96;1706125;83;20952;-68
2021/10/23 03:51:55;;;;;;;14.78;1.47;;;;;;;5.86;77.67;100785.55;1702027;83;21608;-67
2021/10/23 03:54:21;;;;;;;8.48;1.70;;;;;;;5.89;77.65;100800.14;1692253;83;21075;-68
2021/10/23 03:56:47;;;;;;;8.60;1.60;;;;;;;5.91;77.63;100803.57;1695179;83;20884;-67
2021/10/23 03:59:14;;;;;;;6.65;1.57;;;;;;;5.93;77.64;100798.88;1703019;83;20987;-68
2021/10/23 04:01:40;;;;;;;10.15;1.70;;;;;;;5.95;77.63;100811.30;1683213;83;20960;-68
2021/10/23 04:04:06;;;;;;;9.00;1.55;;;;;;;5.98;77.68;100806.19;1701609;83;21576;-68
2021/10/23 04:06:33;;;;;;;8.65;1.50;;;;;;;6.00;77.65;100806.19;1701248;83;21508;-68
2021/10/23 04:08:59;;;;;;;6.90;1.60;;;;;;;6.01;77.64;100798.92;1707919;83;20897;-67
2021/10/23 04:11:35;;;;;;;10.78;1.42;;;;;;;6.01;77.60;100801.92;1721522;82;20926;-67
2021/10/23 04:14:02;;;;;;;;;;;;;;;6.02;77.61;100806.20;1697476;83;21397;-68
2021/10/23 04:16:27;;;;;;;10.18;1.47;;;;;;;6.02;77.66;100806.20;1695389;83;20125;-68
2021/10/23 04:18:54;;;;;;;8.43;1.50;;;;;;;6.03;77.65;100810.48;1699702;83;20889;-68
2021/10/23 04:21:20;;;;;;;12.98;2.30;;;;;;;6.05;77.63;100817.77;1691231;83;20940;-68
2021/10/23 04:23:46;;;;;;;9.93;1.40;;;;;;;6.04;77.63;100813.06;1698044;83;20897;-68
2021/10/23 04:26:12;;;;;;;6.43;1.63;;;;;;;6.05;77.65;100816.48;1694077;83;20905;-68
2021/10/23 04:28:38;;;;;;;6.42;1.50;;;;;;;6.06;77.67;100824.20;1701046;83;20889;-68
2021/10/23 04:31:06;;;;;;;8.13;1.62;;;;;;;6.06;77.64;100828.05;1700816;83;20956;-68
2021/10/23 04:33:32;;;;;;;6.37;1.20;;;;;;;6.05;77.61;100825.47;1697089;83;20929;-68
2021/10/23 04:35:58;;;;;;;9.30;1.35;;;;;;;6.04;77.62;100840.44;1696172;83;20909;-68
2021/10/23 04:38:24;;;;;;;10.10;1.50;;;;;;;6.04;77.68;100835.30;1701140;83;20932;-68
2021/10/23 04:40:50;;;;;;;6.10;1.20;;;;;;;6.03;77.63;100845.14;1700850;83;20957;-67
2021/10/23 04:43:16;;;;;;;7.17;1.98;;;;;;;6.02;77.64;100832.73;1686384;83;20933;-68
2021/10/23 04:45:42;;;;;;;6.93;2.57;;;;;;;6.00;77.66;100840.84;1689381;83;20929;-68
2021/10/23 04:48:08;;;;;;;10.13;1.82;;;;;;;5.99;77.67;100859.66;1690463;83;21099;-68
2021/10/23 04:50:35;;;;;;;6.67;1.23;;;;;;;5.97;77.65;100854.94;1691922;83;21626;-67
2021/10/23 04:53:02;;;;;;;5.50;1.25;;;;;;;5.96;77.66;100856.65;1700862;83;20952;-67
2021/10/23 04:55:27;;;;;;;9.33;1.62;;;;;;;5.96;77.65;100868.20;1674390;84;20936;-67
2021/10/23 04:57:53;;;;;;;8.03;1.87;;;;;;;5.97;77.65;100876.33;1690817;83;20921;-68
2021/10/23 05:00:20;;;;;;;10.70;1.72;;;;;;;5.98;77.67;100873.34;1701014;83;20972;-67
2021/10/23 05:02:46;;;;;;;13.05;1.87;;;;;;;5.98;77.70;100873.34;1699906;83;21115;-68
2021/10/23 05:05:30;;;;;;;12.43;1.82;;;;;;;5.98;77.67;100870.77;1698044;83;21492;-68
2021/10/23 05:07:56;;;;;;;12.03;2.20;;;;;;;5.99;77.69;100868.64;1697207;83;21005;-68
2021/10/23 05:10:23;;;;;;;11.23;1.80;;;;;;;5.99;77.66;100877.63;1699570;83;21087;-68
2021/10/23 05:12:49;;;;;;;8.88;1.80;;;;;;;5.99;77.67;100887.89;1689731;83;22067;-68
2021/10/23 05:15:15;;;;;;;6.33;1.50;;;;;;;5.97;77.64;100885.31;1698541;83;20965;-67
2021/10/23 05:17:41;;;;;;;13.57;1.50;;;;;;;5.97;77.69;100885.74;1700199;83;21663;-68
2021/10/23 05:20:08;;;;;;;9.57;1.83;;;;;;;5.96;77.64;100889.16;1694213;83;20965;-68
2021/10/23 05:22:34;;;;;;;8.28;1.32;;;;;;;5.96;77.65;100907.13;1698396;83;21400;-68
2021/10/23 05:25:01;;;;;;;12.75;1.65;;;;;;;5.95;77.66;100900.27;1701001;83;20905;-68
2021/10/23 05:27:27;;;;;;;9.43;2.12;;;;;;;5.96;77.68;100908.41;1694092;83;21023;-68
2021/10/23 05:30:12;;;;;;;10.78;1.50;;;;;;;5.95;77.68;100908.83;1696232;83;20928;-68
2021/10/23 05:32:38;;;;;;;15.18;1.70;;;;;;;5.96;77.70;100905.41;1700829;83;20936;-67
2021/10/23 05:35:05;;;;;;;12.20;1.77;;;;;;;5.96;77.72;100907.98;1696555;83;20889;-67
2021/10/23 05:37:31;;;;;;;6.67;1.30;;;;;;;5.97;77.71;100914.83;1700808;83;20932;-68
2021/10/23 05:39:57;;;;;;;12.63;2.25;;;;;;;5.99;77.71;100930.25;1700339;83;20956;-68
2021/10/23 05:42:23;;;;;;;9.43;2.22;;;;;;;6.01;77.71;100932.40;1688402;83;20952;-67
2021/10/23 05:44:50;;;;;;;9.33;1.97;;;;;;;6.01;77.69;100923.41;1700654;83;20928;-68
2021/10/23 05:47:16;;;;;;;8.35;1.92;;;;;;;6.01;77.66;100919.98;1693927;83;20928;-67
2021/10/23 05:49:42;;;;;;;8.85;1.80;;;;;;;6.01;77.67;100928.55;1696953;83;20941;-67
2021/10/23 05:52:08;;;;;;;12.53;2.52;;;;;;;6.01;77.68;100925.13;1707541;83;20956;-67
2021/10/23 05:54:37;;;;;;;11.12;2.00;;;;;;;6.01;77.67;100932.83;1700877;83;20909;-67
2021/10/23 05:57:05;;;;;;;7.75;1.37;;;;;;;6.02;77.68;100938.39;1700862;83;20893;-68
2021/10/23 05:59:32;;;;;;;8.95;1.65;;;;;;;6.02;77.70;100943.10;1698802;83;20901;-68
2021/10/23 06:02:08;;;;;;;8.68;1.52;;;;;;;6.02;77.66;100945.67;1694258;82;21279;-68
2021/10/23 06:04:25;;;;;;;7.95;1.40;;;;;;;6.01;77.69;100952.94;1693774;83;20976;-67
2021/10/23 06:06:52;;;;;;;7.03;1.60;;;;;;;6.03;77.71;100961.51;1701105;83;20881;-67
2021/10/23 06:09:18;;;;;;;7.20;1.80;;;;;;;6.03;77.71;100961.51;1692318;83;21129;-68
2021/10/23 06:11:44;;;;;;;8.33;2.13;;;;;;;6.05;77.71;100966.23;1692918;83;21012;-68
2021/10/23 06:14:10;;;;;;;13.07;1.90;;;;;;;6.06;77.69;100965.38;1694501;83;22262;-68
2021/10/23 06:16:36;;;;;;;7.80;1.70;;;;;;;6.08;77.68;100970.53;1696826;83;21746;-68
2021/10/23 06:19:10;;;;;;;9.90;1.98;;;;;;;6.07;77.71;100967.10;1696424;83;21566;-68
2021/10/23 06:21:36;;;;;;;12.82;2.22;;;;;;;6.09;77.67;100979.95;1698673;83;21297;-68
2021/10/23 06:24:03;;;;;;;10.03;2.67;;;;;;;6.10;77.70;100968.41;1696773;83;21095;-67
2021/10/23 06:26:37;;;;;;;9.25;1.80;;;;;;;6.11;77.72;100970.13;1698536;83;20945;-68
2021/10/23 06:29:03;;;;;;;5.23;1.50;;;;;;;6.13;77.69;100972.71;1697000;83;20912;-68
2021/10/23 06:31:29;;;;;;;7.40;1.90;;;;;;;6.16;77.72;100972.73;1689895;83;20878;-67
2021/10/23 06:33:55;;;;;;;10.40;1.63;;;;;;;6.17;77.68;100989.44;1682410;83;22047;-68
2021/10/23 06:36:21;;;;;;;13.10;2.27;;;;;;;6.18;77.68;100981.31;1685080;83;20937;-68
2021/10/23 06:38:47;;;;;;;6.08;2.10;;;;;;;6.19;77.68;100995.44;1689442;83;20925;-68
2021/10/23 06:41:13;;;;;;;13.95;2.62;;;;;;;6.18;77.67;101002.71;1684670;83;20969;-67
2021/10/23 06:43:41;;;;;;;8.73;2.08;;;;;;;6.19;77.68;101003.57;1698805;83;20936;-68
2021/10/23 06:46:07;;;;;;;8.85;2.52;;;;;;;6.23;77.73;101019.02;1681059;83;20949;-68
2021/10/23 06:48:33;;;;;;;10.10;2.03;;;;;;;6.25;77.69;101032.69;1689619;83;20913;-68
2021/10/23 06:50:59;;;;;;;11.40;2.23;;;;;;;6.28;77.71;101037.00;1685380;83;20977;-68
2021/10/23 06:53:25;;;;;;;8.73;1.82;;;;;;;6.30;77.69;101036.16;1687530;83;20936;-68
2021/10/23 06:55:52;;;;;;;9.20;1.97;;;;;;;6.33;77.70;101034.47;1683539;83;21499;-68
2021/10/23 06:58:18;;;;;;;8.95;1.87;;;;;;;6.35;77.70;101031.06;1686929;83;20988;-68
2021/10/23 07:00:44;;;;;;;9.95;2.37;;;;;;;6.39;77.73;101037.08;1680158;83;20930;-68
2021/10/23 07:03:17;;;;;;;11.90;2.12;;;;;;;6.39;77.66;101030.66;1683302;83;20968;-68
2021/10/23 07:05:44;;;;;;;8.33;2.05;;;;;;;6.43;77.73;101039.69;1677027;83;21488;-68
2021/10/23 07:08:10;;;;;;;9.85;2.25;;;;;;;6.48;77.69;101039.72;1676215;84;20949;-67
2021/10/23 07:10:38;;;;;;;9.63;2.08;;;;;;;6.49;77.65;101047.45;1671343;84;20902;-68
2021/10/23 07:13:05;;;;;;;8.08;1.65;;;;;;;6.49;77.65;101047.87;1672533;84;20914;-67
2021/10/23 07:15:31;;;;;;;7.30;1.42;;;;;;;6.51;77.68;101056.45;1667014;84;21488;-68
2021/10/23 07:17:57;;;;;;;13.75;1.98;;;;;;;6.59;77.71;101063.36;1662796;84;20938;-69
2021/10/23 07:20:25;;;;;;;8.83;2.30;;;;;;;6.69;77.75;101065.58;1662931;84;20929;-70
2021/10/23 07:22:56;;;;;;;12.43;2.67;;;;;;;6.79;77.70;101075.47;1674385;84;20957;-70
2021/10/23 07:25:23;;;;;;;5.17;2.00;;;;;;;6.81;77.65;101081.05;1676483;84;20874;-69
2021/10/23 07:27:49;;;;;;;8.93;2.60;;;;;;;6.80;77.58;101080.62;1677583;84;20981;-69
2021/10/23 07:30:15;;;;;;;13.10;2.00;;;;;;;6.81;77.60;101082.77;1680572;83;21699;-70
2021/10/23 07:32:41;;;;;;;9.23;2.20;;;;;;;6.84;77.62;101086.64;1681272;84;21025;-70
2021/10/23 07:35:10;;;;;;;11.83;2.65;;;;;;;6.86;77.57;101076.80;1677081;84;23605;-69
2021/10/23 07:37:40;;;;;;;15.48;2.72;;;;;;;6.85;77.55;101071.23;1676378;84;20902;-70
2021/10/23 07:40:09;;;;;;;9.70;2.33;;;;;;;6.85;77.57;101101.22;1677408;84;20879;-70
2021/10/23 07:42:36;;;;;;;10.48;2.45;;;;;;;6.85;77.53;101106.35;1681542;84;20978;-70
2021/10/23 07:45:05;;;;;;;7.62;2.45;;;;;;;6.83;77.51;101104.20;1679761;84;20961;-70
2021/10/23 07:47:32;;;;;;;12.95;2.27;;;;;;;6.86;77.60;101111.50;1674942;84;20986;-70
2021/10/23 07:49:58;;;;;;;7.70;2.10;;;;;;;6.87;77.54;101114.94;1679359;84;20953;-70
2021/10/23 07:52:25;;;;;;;;;;;;;;;6.86;77.52;101119.64;1676866;84;21539;-69
2021/10/23 07:54:52;;;;;;;10.60;1.85;;;;;;;6.88;77.52;101128.22;1674056;84;20134;-69
2021/10/23 07:57:18;;;;;;;10.05;2.08;;;;;;;6.93;77.59;101136.41;1666792;83;20966;-69
2021/10/23 07:59:44;;;;;;;10.18;2.00;;;;;;;7.06;77.66;101141.64;1647126;85;20989;-69
2021/10/23 08:02:11;;;;;;;12.68;2.22;;;;;;;7.20;77.70;101138.31;1662249;84;21430;-69
2021/10/23 08:04:37;;;;;;;7.58;1.67;;;;;;;7.36;77.65;101140.52;1667621;83;21453;-69
2021/10/23 08:07:05;;;;;;;8.23;2.60;;;;;;;7.52;77.68;101147.89;1675029;83;21429;-69
2021/10/23 08:09:37;;;;;;;10.78;1.90;;;;;;;7.67;77.59;101156.97;1670078;83;20925;-69
2021/10/23 08:12:04;;;;;;;9.53;1.52;;;;;;;7.73;77.48;101153.14;1672859;83;20937;-69
2021/10/23 08:14:35;;;;;;;10.82;1.77;;;;;;;7.85;77.50;101164.75;1667125;83;21543;-69
2021/10/23 08:17:03;;;;;;;9.65;2.20;;;;;;;7.93;77.47;101156.63;1681888;83;21510;-70
2021/10/23 08:19:29;;;;;;;12.65;2.37;;;;;;;8.03;77.48;101161.81;1687149;83;21539;-71
2021/10/23 08:21:55;;;;;;;5.78;2.17;;;;;;;8.04;77.36;101163.53;1665265;84;21520;-71
2021/10/23 08:24:22;;;;;;;7.97;1.80;;;;;;;8.09;77.34;101168.27;1689412;83;21544;-71
2021/10/23 08:26:50;;;;;;;9.73;1.67;;;;;;;8.14;77.38;101163.98;1677266;83;21706;-71
2021/10/23 08:29:17;;;;;;;12.40;1.82;;;;;;;8.17;77.36;101162.71;1683624;83;21014;-68
2021/10/23 08:31:44;;;;;;;5.70;1.65;;;;;;;8.17;77.29;101173.02;1689371;83;21159;-68
2021/10/23 08:34:10;;;;;;;11.22;2.02;;;;;;;8.16;77.25;101169.58;1678369;83;21043;-73
2021/10/23 08:36:36;;;;;;;6.90;1.50;;;;;;;8.16;77.20;101179.87;1677407;83;21587;-72
2021/10/23 08:39:05;;;;;;;11.73;2.27;;;;;;;8.19;77.21;101177.31;1681572;83;21445;-72
2021/10/23 08:41:33;;;;;;;14.75;1.60;;;;;;;8.22;77.19;101181.19;1680599;83;21852;-72
2021/10/23 08:44:03;;;;;;;7.85;2.00;;;;;;;8.26;77.22;101193.65;1691245;83;20953;-72
2021/10/23 08:46:33;;;;;;;7.83;1.52;;;;;;;8.30;77.24;101184.64;1682307;83;21714;-72
2021/10/23 08:49:01;;;;;;;7.90;1.50;;;;;;;8.36;77.22;101199.69;1688443;83;21379;-72
2021/10/23 08:51:31;;;;;;;10.05;1.65;;;;;;;8.39;77.16;101197.98;1679259;83;20993;-72
2021/10/23 08:53:59;;;;;;;6.78;1.40;;;;;;;8.46;77.12;101213.03;1689757;83;21575;-72
2021/10/23 08:56:25;;;;;;;9.48;1.50;;;;;;;8.46;77.01;101207.88;1695426;83;21067;-72
2021/10/23 08:58:51;;;;;;;5.55;1.80;;;;;;;8.49;77.03;101209.17;1689201;83;21131;-71
2021/10/23 09:01:18;;;;;;;8.33;2.00;;;;;;;8.51;76.98;101211.32;1681404;83;21769;-74
2021/10/23 09:03:46;;;;;;;12.37;1.82;;;;;;;8.55;76.98;101227.23;1687252;83;21083;-74
2021/10/23 09:06:33;;;;;;;6.75;1.50;;;;;;;8.57;76.46;101216.06;1690705;83;21779;-74
2021/10/23 09:09:09;;;;;;;5.15;1.02;;;;;;;8.59;76.83;101236.69;1688020;83;21488;-74
2021/10/23 09:11:43;;;;;;;10.10;1.70;;;;;;;8.66;76.88;101238.84;1681252;83;21751;-74
2021/10/23 09:14:39;;;;;;;7.50;1.80;;;;;;;8.63;76.70;101243.14;1687065;83;21531;-74
2021/10/23 09:17:07;;;;;;;5.90;1.22;;;;;;;8.62;76.60;101239.27;1687883;83;20929;-75
2021/10/23 09:19:46;;;;;;;6.25;1.60;;;;;;;8.65;76.71;101248.30;1690576;83;21418;-75
2021/10/23 09:22:29;;;;;;;16.70;2.47;;;;;;;8.67;76.55;101250.45;1659171;83;21388;-75
2021/10/23 09:25:23;;;;;;;14.43;1.98;;;;;;;8.70;76.58;101249.60;1684592;83;21428;-75
2021/10/23 09:28:12;;;;;;;9.23;2.05;;;;;;;8.71;76.58;101258.62;1605079;87;21082;-75
2021/10/23 09:30:43;;;;;;;7.42;1.65;;;;;;;8.75;76.51;101256.91;1679088;83;20968;-75
2021/10/23 09:33:16;;;;;;;6.33;1.35;;;;;;;8.80;76.46;101266.38;1687029;83;20969;-74
2021/10/23 09:35:54;;;;;;;6.70;1.52;;;;;;;8.83;76.42;101271.97;1686306;83;21826;-74
2021/10/23 09:38:29;;;;;;;9.15;1.50;;;;;;;8.83;76.37;101279.70;1694558;83;21489;-74
2021/10/23 09:40:59;;;;;;;6.37;1.87;;;;;;;8.83;76.39;101279.28;1683087;83;21524;-74
2021/10/23 09:43:32;;;;;;;7.80;1.60;;;;;;;8.89;76.27;101284.42;1689198;83;20942;-74
2021/10/23 09:46:08;;;;;;;10.88;1.98;;;;;;;8.92;76.22;101283.56;1697116;83;20998;-74
2021/10/23 09:48:52;;;;;;;7.87;1.90;;;;;;;9.04;76.39;101293.90;1683075;83;21377;-74
2021/10/23 09:51:26;;;;;;;7.97;2.40;;;;;;;9.19;76.30;101286.60;1683959;83;21700;-74
2021/10/23 09:53:59;;;;;;;11.18;2.35;;;;;;;9.29;76.13;101296.07;1687391;83;20997;-74
2021/10/23 09:56:35;;;;;;;9.73;1.98;;;;;;;9.36;76.10;101294.35;1684827;83;21012;-74
2021/10/23 09:59:10;;;;;;;9.53;1.77;;;;;;;9.44;76.05;101290.02;1687294;83;21037;-74
2021/10/23 10:01:43;;;;;;;9.40;2.70;;;;;;;9.53;76.09;101292.59;1674997;83;36905;-75
2021/10/23 10:06:49;;;;;;;6.10;1.63;;;;;;;9.79;75.92;101291.27;1832820;75;22033;-73
2021/10/23 10:09:23;;;;;;;7.70;1.80;;;;;;;9.73;75.59;101295.16;1790089;78;21024;-74
2021/10/23 10:11:53;;;;;;;12.43;2.02;;;;;;;9.73;75.68;101296.45;1822278;77;21216;-75
2021/10/23 10:14:33;;;;;;;9.05;1.70;;;;;;;9.78;75.81;101308.92;1803404;77;20932;-74
2021/10/23 10:17:01;;;;;;;6.17;1.65;;;;;;;9.87;75.81;101299.44;1764501;79;21034;-74
2021/10/23 10:19:27;;;;;;;8.88;1.60;;;;;;;9.91;75.57;101314.47;1788021;78;21039;-74
2021/10/23 10:21:54;;;;;;;7.60;1.82;;;;;;;9.89;75.43;101315.76;1811643;77;20952;-74
2021/10/23 10:24:32;;;;;;;6.85;1.95;;;;;;;9.85;75.23;101302.45;1783207;78;20921;-74
2021/10/23 10:27:10;;;;;;;9.30;2.17;;;;;;;9.85;75.32;101313.22;1807753;78;20936;-74
2021/10/23 10:29:55;;;;;;;6.35;1.77;;;;;;;9.92;75.08;101308.44;1756959;78;425190;-74
2021/10/23 10:32:37;;;;;;;6.45;2.05;;;;;;;9.88;75.14;101305.00;1760935;79;20950;-74
2021/10/23 10:40:57;;;;;;;6.40;2.10;;;;;;;9.73;74.85;101311.94;1734079;80;21430;-74
2021/10/23 10:43:15;;;;;;;10.08;2.10;;;;;;;9.69;74.89;101315.39;1746043;80;21087;-73
2021/10/23 10:45:47;;;;;;;16.00;2.20;;;;;;;9.66;74.85;101308.50;1747940;80;20905;-72
2021/10/23 10:48:34;;;;;;;9.83;1.65;;;;;;;9.65;74.69;101316.25;1761225;80;20904;-73
2021/10/23 10:51:15;;;;;;;10.30;2.10;;;;;;;9.68;74.87;101327.88;1739397;81;20921;-75
2021/10/23 10:53:55;;;;;;;8.03;1.77;;;;;;;9.73;74.73;101313.23;1717623;83;20922;-74
2021/10/23 10:56:23;;;;;;;7.22;1.70;;;;;;;9.80;74.74;101319.68;1737404;80;20910;-74
2021/10/23 10:58:55;;;;;;;6.53;1.80;;;;;;;9.91;74.59;101324.37;1741132;80;20934;-74
2021/10/23 11:01:32;;;;;;;8.30;2.40;;;;;;;10.01;74.59;101326.94;1749100;80;20918;-74
2021/10/23 11:04:02;;;;;;;;;;;;;;;10.05;74.45;101326.92;1751109;81;20914;-74
2021/10/23 11:06:42;;;;;;;6.65;1.82;;;;;;;10.09;74.16;101331.65;1744931;79;20114;-74
2021/10/23 11:09:17;;;;;;;8.23;1.62;;;;;;;10.13;74.39;101330.34;1751453;80;20875;-73
2021/10/23 11:11:51;;;;;;;8.68;2.00;;;;;;;10.14;74.24;101332.50;1746789;81;20930;-73
2021/10/23 11:14:35;;;;;;;;;;;;;;;10.19;74.12;101334.64;1746204;80;20906;-74
2021/10/23 11:17:13;;;;;;;7.50;1.85;;;;;;;10.15;73.77;101338.95;1732089;80;20135;-73
2021/10/23 11:19:49;;;;;;;9.30;2.20;;;;;;;10.15;74.02;101344.56;1732460;81;20870;-73
2021/10/23 11:22:31;;;;;;;6.83;1.95;;;;;;;10.16;73.93;101352.73;1741629;82;20961;-73
2021/10/23 11:25:12;;;;;;;11.83;1.70;;;;;;;10.07;73.49;101354.05;1740854;82;20894;-73
2021/10/23 11:27:42;;;;;;;7.65;1.77;;;;;;;9.97;73.54;101349.33;1742531;80;20932;-73
2021/10/23 11:30:33;;;;;;;6.67;1.82;;;;;;;9.91;73.51;101352.78;1750355;81;20862;-74
2021/10/23 11:33:03;;;;;;;11.57;2.27;;;;;;;9.83;73.36;101351.97;1732743;80;20892;-74
2021/10/23 11:35:40;;;;;;;7.30;1.98;;;;;;;9.78;73.53;101358.86;1760281;81;20980;-74
2021/10/23 11:38:10;;;;;;;9.90;1.90;;;;;;;9.76;73.22;101366.17;1743355;79;21116;-74
2021/10/23 11:40:40;;;;;;;9.33;1.92;;;;;;;9.78;73.47;101367.89;1754610;81;21083;-69
2021/10/23 11:43:07;;;;;;;9.03;2.17;;;;;;;9.90;73.46;101365.27;1757270;81;20882;-68
2021/10/23 11:45:36;;;;;;;9.38;1.77;;;;;;;10.00;73.26;101370.42;1754387;79;20895;-68
2021/10/23 11:48:07;;;;;;;9.28;1.82;;;;;;;10.05;73.17;101374.72;1737512;81;21052;-69